Terminal Aerodrome Forecast
Issued by NWS Tampa Bay Area, FL

Home | Current Version | Previous Version | Text Only | Print | Product List | Glossary On
Versions: 1 2 3 4 5 6 7 8 9 10 11 12 13 14
928
FTUS42 KTBW 250522
TAFFMY
TAF
KFMY 250522Z 2506/2606 00000KT P6SM FEW050 FEW250
     FM251400 VRB05KT P6SM FEW025 SCT250
     FM251800 26008KT P6SM VCTS SCT030CB BKN250
     FM252300 27006KT P6SM SCT035 BKN045
     FM260300 VRB03KT P6SM SCT050 BKN250=

USA.gov is the U.S. government's official web portal to all federal, state and local government web resources and services.